sensor_id;sensor_type;location;lat;lon;timestamp;pressure;altitude;pressure_sealevel;temperature;humidity
65175;BME280;51761;42.126;24.752;2022-07-23T00:02:16;99679.59;;;25.43;53.47
65175;BME280;51761;42.126;24.752;2022-07-23T00:04:42;99681.16;;;25.44;52.93
65175;BME280;51761;42.126;24.752;2022-07-23T00:07:07;99638.84;;;25.10;55.71
65175;BME280;51761;42.126;24.752;2022-07-23T00:09:32;99676.78;;;25.21;53.92
65175;BME280;51761;42.126;24.752;2022-07-23T00:11:58;99689.25;;;25.18;53.37
65175;BME280;51761;42.126;24.752;2022-07-23T00:14:24;99643.25;;;24.94;52.35
65175;BME280;51761;42.126;24.752;2022-07-23T00:16:49;99658.84;;;24.82;53.72
65175;BME280;51761;42.126;24.752;2022-07-23T00:19:15;99594.41;;;24.43;54.36
65175;BME280;51761;42.126;24.752;2022-07-23T00:21:41;99684.31;;;24.97;52.36
65175;BME280;51761;42.126;24.752;2022-07-23T00:24:06;99680.16;;;25.03;54.74
65175;BME280;51761;42.126;24.752;2022-07-23T00:26:32;99656.25;;;24.84;51.77
65175;BME280;51761;42.126;24.752;2022-07-23T00:28:57;99646.13;;;24.78;54.69
65175;BME280;51761;42.126;24.752;2022-07-23T00:31:23;99676.50;;;24.81;52.71
65175;BME280;51761;42.126;24.752;2022-07-23T00:33:49;99666.91;;;24.67;53.38
65175;BME280;51761;42.126;24.752;2022-07-23T00:36:15;99690.53;;;24.79;52.11
65175;BME280;51761;42.126;24.752;2022-07-23T00:42:02;99678.03;;;24.65;53.34
65175;BME280;51761;42.126;24.752;2022-07-23T00:44:28;99686.09;;;24.61;53.92
65175;BME280;51761;42.126;24.752;2022-07-23T00:46:58;99693.38;;;24.57;55.93
65175;BME280;51761;42.126;24.752;2022-07-23T00:49:28;99648.88;;;24.23;53.53
65175;BME280;51761;42.126;24.752;2022-07-23T00:51:55;99692.53;;;24.45;52.95
65175;BME280;51761;42.126;24.752;2022-07-23T00:54:23;99695.88;;;24.44;53.37
65175;BME280;51761;42.126;24.752;2022-07-23T00:56:49;99688.88;;;24.39;52.76
65175;BME280;51761;42.126;24.752;2022-07-23T00:59:14;99683.66;;;24.32;53.27
65175;BME280;51761;42.126;24.752;2022-07-23T01:01:41;99702.63;;;24.30;55.30
65175;BME280;51761;42.126;24.752;2022-07-23T01:04:07;99707.75;;;24.15;55.87
65175;BME280;51761;42.126;24.752;2022-07-23T01:06:37;99704.38;;;24.22;54.83
65175;BME280;51761;42.126;24.752;2022-07-23T01:09:06;99693.22;;;24.24;54.14
65175;BME280;51761;42.126;24.752;2022-07-23T01:11:36;99701.50;;;24.11;54.44
65175;BME280;51761;42.126;24.752;2022-07-23T01:14:28;99692.13;;;24.00;54.73
65175;BME280;51761;42.126;24.752;2022-07-23T01:16:54;99688.72;;;23.96;55.64
65175;BME280;51761;42.126;24.752;2022-07-23T01:19:19;99664.84;;;23.88;56.66
65175;BME280;51761;42.126;24.752;2022-07-23T01:21:50;99652.09;;;23.83;55.67
65175;BME280;51761;42.126;24.752;2022-07-23T01:24:17;99693.38;;;23.93;54.58
65175;BME280;51761;42.126;24.752;2022-07-23T01:26:46;99657.44;;;23.65;55.21
65175;BME280;51761;42.126;24.752;2022-07-23T01:29:12;99701.41;;;23.84;56.17
65175;BME280;51761;42.126;24.752;2022-07-23T01:31:39;99691.03;;;23.86;54.57
65175;BME280;51761;42.126;24.752;2022-07-23T01:34:04;99660.78;;;23.63;57.65
65175;BME280;51761;42.126;24.752;2022-07-23T01:36:35;99691.31;;;23.94;55.51
65175;BME280;51761;42.126;24.752;2022-07-23T01:39:02;99658.78;;;23.69;56.55
65175;BME280;51761;42.126;24.752;2022-07-23T01:41:28;99657.22;;;23.68;54.82
65175;BME280;51761;42.126;24.752;2022-07-23T01:43:53;99699.59;;;23.44;55.42
65175;BME280;51761;42.126;24.752;2022-07-23T01:46:19;99653.91;;;23.02;56.21
65175;BME280;51761;42.126;24.752;2022-07-23T01:48:44;99692.38;;;23.12;57.27
65175;BME280;51761;42.126;24.752;2022-07-23T01:51:10;99658.84;;;22.71;56.31
65175;BME280;51761;42.126;24.752;2022-07-23T01:53:35;99694.53;;;22.97;57.13
65175;BME280;51761;42.126;24.752;2022-07-23T01:56:02;99690.19;;;23.02;58.22
65175;BME280;51761;42.126;24.752;2022-07-23T01:58:28;99690.72;;;23.06;55.50
65175;BME280;51761;42.126;24.752;2022-07-23T02:00:54;99695.06;;;23.01;55.37
65175;BME280;51761;42.126;24.752;2022-07-23T02:03:21;99699.25;;;23.06;55.54
65175;BME280;51761;42.126;24.752;2022-07-23T02:05:47;99681.38;;;22.74;55.86
65175;BME280;51761;42.126;24.752;2022-07-23T02:08:13;99690.75;;;22.80;56.57
65175;BME280;51761;42.126;24.752;2022-07-23T02:10:38;99695.34;;;22.72;56.11
65175;BME280;51761;42.126;24.752;2022-07-23T02:13:04;99689.38;;;22.70;56.25
65175;BME280;51761;42.126;24.752;2022-07-23T02:15:29;99665.09;;;22.50;57.54
65175;BME280;51761;42.126;24.752;2022-07-23T02:17:55;99675.31;;;22.61;56.32
65175;BME280;51761;42.126;24.752;2022-07-23T02:20:21;99670.91;;;22.60;56.10
65175;BME280;51761;42.126;24.752;2022-07-23T02:22:47;99684.88;;;22.58;56.31
65175;BME280;51761;42.126;24.752;2022-07-23T02:25:12;99658.19;;;22.36;56.42
65175;BME280;51761;42.126;24.752;2022-07-23T02:27:38;99674.63;;;22.47;56.00
65175;BME280;51761;42.126;24.752;2022-07-23T02:30:04;99688.81;;;22.66;56.23
65175;BME280;51761;42.126;24.752;2022-07-23T02:32:30;99652.06;;;22.38;56.75
65175;BME280;51761;42.126;24.752;2022-07-23T02:34:55;99690.31;;;22.62;56.02
65175;BME280;51761;42.126;24.752;2022-07-23T02:37:21;99705.22;;;22.77;58.92
65175;BME280;51761;42.126;24.752;2022-07-23T02:39:46;99677.91;;;22.65;61.44
65175;BME280;51761;42.126;24.752;2022-07-23T02:42:14;99671.22;;;22.68;56.30
65175;BME280;51761;42.126;24.752;2022-07-23T02:44:39;99672.38;;;22.81;56.07
65175;BME280;51761;42.126;24.752;2022-07-23T02:47:05;99703.88;;;22.98;56.54
65175;BME280;51761;42.126;24.752;2022-07-23T02:49:30;99696.16;;;23.04;55.80
65175;BME280;51761;42.126;24.752;2022-07-23T02:51:56;99675.06;;;22.90;55.12
65175;BME280;51761;42.126;24.752;2022-07-23T02:54:22;99703.50;;;23.16;55.87
65175;BME280;51761;42.126;24.752;2022-07-23T02:56:47;99711.59;;;23.23;59.44
65175;BME280;51761;42.126;24.752;2022-07-23T02:59:13;99700.75;;;23.27;55.22
65175;BME280;51761;42.126;24.752;2022-07-23T03:01:38;99715.56;;;23.36;57.37
65175;BME280;51761;42.126;24.752;2022-07-23T03:04:04;99705.56;;;23.52;59.32
65175;BME280;51761;42.126;24.752;2022-07-23T03:06:29;99687.16;;;23.53;55.69
65175;BME280;51761;42.126;24.752;2022-07-23T03:08:55;99683.31;;;23.56;57.40
65175;BME280;51761;42.126;24.752;2022-07-23T03:11:21;99715.56;;;23.73;55.79
65175;BME280;51761;42.126;24.752;2022-07-23T03:13:46;99712.03;;;23.89;53.26
65175;BME280;51761;42.126;24.752;2022-07-23T03:16:12;99711.00;;;23.86;54.88
65175;BME280;51761;42.126;24.752;2022-07-23T03:18:37;99715.94;;;23.91;57.69
65175;BME280;51761;42.126;24.752;2022-07-23T03:21:03;99706.09;;;23.92;56.00
65175;BME280;51761;42.126;24.752;2022-07-23T03:23:28;99714.09;;;23.88;53.81
65175;BME280;51761;42.126;24.752;2022-07-23T03:25:54;99692.22;;;23.74;53.17
65175;BME280;51761;42.126;24.752;2022-07-23T03:28:19;99719.59;;;23.92;55.16
65175;BME280;51761;42.126;24.752;2022-07-23T03:30:46;99712.31;;;23.96;55.34
65175;BME280;51761;42.126;24.752;2022-07-23T03:33:16;99717.22;;;23.85;52.06
65175;BME280;51761;42.126;24.752;2022-07-23T03:35:43;99720.59;;;23.94;54.85
65175;BME280;51761;42.126;24.752;2022-07-23T03:38:09;99693.38;;;23.93;52.78
65175;BME280;51761;42.126;24.752;2022-07-23T03:40:34;99722.25;;;24.06;52.33
65175;BME280;51761;42.126;24.752;2022-07-23T03:43:00;99700.63;;;23.89;56.86
65175;BME280;51761;42.126;24.752;2022-07-23T03:45:25;99733.72;;;24.23;56.31
65175;BME280;51761;42.126;24.752;2022-07-23T03:47:51;99719.47;;;24.28;54.82
65175;BME280;51761;42.126;24.752;2022-07-23T03:50:16;99712.72;;;24.25;52.47
65175;BME280;51761;42.126;24.752;2022-07-23T03:52:42;99727.78;;;24.26;52.82
65175;BME280;51761;42.126;24.752;2022-07-23T03:55:08;99688.72;;;23.96;52.15
65175;BME280;51761;42.126;24.752;2022-07-23T03:57:33;99724.03;;;24.04;53.52
65175;BME280;51761;42.126;24.752;2022-07-23T03:59:59;99720.38;;;23.98;52.06
65175;BME280;51761;42.126;24.752;2022-07-23T04:02:24;99722.47;;;24.03;51.11
65175;BME280;51761;42.126;24.752;2022-07-23T04:04:50;99727.91;;;24.01;56.56
65175;BME280;51761;42.126;24.752;2022-07-23T04:07:16;99726.63;;;24.02;52.45
65175;BME280;51761;42.126;24.752;2022-07-23T04:09:43;99713.31;;;23.82;53.67
65175;BME280;51761;42.126;24.752;2022-07-23T04:12:09;99705.00;;;23.84;53.98
65175;BME280;51761;42.126;24.752;2022-07-23T04:14:42;99686.72;;;23.65;53.64
65175;BME280;51761;42.126;24.752;2022-07-23T04:17:07;99730.47;;;23.93;53.59
65175;BME280;51761;42.126;24.752;2022-07-23T04:19:37;99740.56;;;23.89;53.10
65175;BME280;51761;42.126;24.752;2022-07-23T04:22:06;99729.63;;;23.82;52.58
65175;BME280;51761;42.126;24.752;2022-07-23T04:24:32;99722.66;;;23.83;54.32
65175;BME280;51761;42.126;24.752;2022-07-23T04:26:58;99737.50;;;23.98;53.39
65175;BME280;51761;42.126;24.752;2022-07-23T04:29:24;99698.47;;;23.78;52.21
65175;BME280;51761;42.126;24.752;2022-07-23T04:31:49;99703.59;;;23.69;51.26
65175;BME280;51761;42.126;24.752;2022-07-23T04:34:15;99741.09;;;23.93;52.56
65175;BME280;51761;42.126;24.752;2022-07-23T04:36:40;99733.34;;;23.99;52.27
65175;BME280;51761;42.126;24.752;2022-07-23T04:39:06;99705.69;;;23.74;51.30
65175;BME280;51761;42.126;24.752;2022-07-23T04:41:32;99705.22;;;23.81;51.33
65175;BME280;51761;42.126;24.752;2022-07-23T04:43:57;99738.09;;;24.13;51.95
65175;BME280;51761;42.126;24.752;2022-07-23T04:46:23;99700.94;;;24.02;52.02
65175;BME280;51761;42.126;24.752;2022-07-23T04:48:48;99731.88;;;24.14;51.03
65175;BME280;51761;42.126;24.752;2022-07-23T04:51:14;99729.28;;;24.11;50.63
65175;BME280;51761;42.126;24.752;2022-07-23T04:53:39;99743.81;;;24.13;50.38
65175;BME280;51761;42.126;24.752;2022-07-23T04:56:05;99719.34;;;24.01;50.11
65175;BME280;51761;42.126;24.752;2022-07-23T04:58:31;99748.84;;;24.45;51.96
65175;BME280;51761;42.126;24.752;2022-07-23T05:00:57;99725.25;;;24.44;50.72
65175;BME280;51761;42.126;24.752;2022-07-23T05:03:23;99738.56;;;24.64;48.98
65175;BME280;51761;42.126;24.752;2022-07-23T05:05:49;99748.19;;;24.77;49.29
65175;BME280;51761;42.126;24.752;2022-07-23T05:08:15;99719.34;;;24.70;49.35
65175;BME280;51761;42.126;24.752;2022-07-23T05:10:40;99705.31;;;24.66;48.76
65175;BME280;51761;42.126;24.752;2022-07-23T05:13:06;99709.50;;;24.82;48.83
65175;BME280;51761;42.126;24.752;2022-07-23T05:15:31;99714.44;;;25.03;48.98
65175;BME280;51761;42.126;24.752;2022-07-23T05:17:57;99708.97;;;25.00;48.40
65175;BME280;51761;42.126;24.752;2022-07-23T05:20:23;99714.72;;;25.22;49.24
65175;BME280;51761;42.126;24.752;2022-07-23T05:22:48;99741.97;;;25.61;48.70
65175;BME280;51761;42.126;24.752;2022-07-23T05:25:14;99710.78;;;25.58;48.30
65175;BME280;51761;42.126;24.752;2022-07-23T05:27:39;99742.97;;;25.80;48.35
65175;BME280;51761;42.126;24.752;2022-07-23T05:30:05;99743.00;;;25.86;47.60
65175;BME280;51761;42.126;24.752;2022-07-23T05:32:32;99702.19;;;25.63;47.62
65175;BME280;51761;42.126;24.752;2022-07-23T05:34:57;99733.34;;;25.94;47.46
65175;BME280;51761;42.126;24.752;2022-07-23T05:37:23;99728.91;;;25.98;47.06
65175;BME280;51761;42.126;24.752;2022-07-23T05:39:49;99725.41;;;26.27;46.86
65175;BME280;51761;42.126;24.752;2022-07-23T05:42:14;99674.97;;;26.13;46.76
65175;BME280;51761;42.126;24.752;2022-07-23T05:44:40;99722.16;;;26.58;46.10
65175;BME280;51761;42.126;24.752;2022-07-23T05:47:05;99698.44;;;26.58;46.73
65175;BME280;51761;42.126;24.752;2022-07-23T05:49:31;99710.91;;;26.66;45.00
65175;BME280;51761;42.126;24.752;2022-07-23T05:51:56;99710.09;;;26.71;44.94
65175;BME280;51761;42.126;24.752;2022-07-23T05:54:22;99702.59;;;26.62;45.94
65175;BME280;51761;42.126;24.752;2022-07-23T05:56:47;99730.28;;;26.89;45.24
65175;BME280;51761;42.126;24.752;2022-07-23T05:59:13;99705.94;;;26.66;45.52
65175;BME280;51761;42.126;24.752;2022-07-23T06:01:39;99710.81;;;26.82;45.30
65175;BME280;51761;42.126;24.752;2022-07-23T06:04:05;99730.16;;;27.11;45.25
65175;BME280;51761;42.126;24.752;2022-07-23T06:06:31;99719.38;;;27.23;43.71
65175;BME280;51761;42.126;24.752;2022-07-23T06:08:57;99732.41;;;27.48;44.13
65175;BME280;51761;42.126;24.752;2022-07-23T06:11:22;99735.66;;;27.63;43.93
65175;BME280;51761;42.126;24.752;2022-07-23T06:13:48;99721.56;;;27.64;44.26
65175;BME280;51761;42.126;24.752;2022-07-23T06:16:13;99697.56;;;27.62;44.17
65175;BME280;51761;42.126;24.752;2022-07-23T06:18:39;99730.63;;;27.98;43.66
65175;BME280;51761;42.126;24.752;2022-07-23T06:21:04;99742.22;;;28.11;43.16
65175;BME280;51761;42.126;24.752;2022-07-23T06:23:30;99728.88;;;28.13;43.71
65175;BME280;51761;42.126;24.752;2022-07-23T06:25:55;99735.78;;;28.47;43.01
65175;BME280;51761;42.126;24.752;2022-07-23T06:28:21;99727.44;;;28.44;43.07
65175;BME280;51761;42.126;24.752;2022-07-23T06:30:46;99732.50;;;28.56;41.15
65175;BME280;51761;42.126;24.752;2022-07-23T06:33:12;99701.75;;;28.51;41.77
65175;BME280;51761;42.126;24.752;2022-07-23T06:35:37;99729.00;;;29.00;40.80
65175;BME280;51761;42.126;24.752;2022-07-23T06:38:03;99701.59;;;29.12;41.07
65175;BME280;51761;42.126;24.752;2022-07-23T06:40:28;99715.63;;;29.34;39.86
65175;BME280;51761;42.126;24.752;2022-07-23T06:42:54;99726.91;;;29.63;40.09
65175;BME280;51761;42.126;24.752;2022-07-23T06:45:21;99708.72;;;29.55;39.77
65175;BME280;51761;42.126;24.752;2022-07-23T06:51:27;99719.53;;;30.20;38.20
65175;BME280;51761;42.126;24.752;2022-07-23T06:53:52;99716.19;;;30.29;38.51
65175;BME280;51761;42.126;24.752;2022-07-23T06:56:18;99719.97;;;30.11;39.26
65175;BME280;51761;42.126;24.752;2022-07-23T06:58:43;99721.09;;;30.08;38.86
65175;BME280;51761;42.126;24.752;2022-07-23T07:01:09;99690.81;;;30.14;38.45
65175;BME280;51761;42.126;24.752;2022-07-23T07:03:35;99673.28;;;30.38;37.64
65175;BME280;51761;42.126;24.752;2022-07-23T07:06:00;99706.28;;;30.50;37.94
65175;BME280;51761;42.126;24.752;2022-07-23T07:08:27;99698.31;;;30.56;38.06
65175;BME280;51761;42.126;24.752;2022-07-23T07:10:53;99704.00;;;30.82;38.58
65175;BME280;51761;42.126;24.752;2022-07-23T07:13:18;99676.03;;;31.11;37.12
65175;BME280;51761;42.126;24.752;2022-07-23T07:15:44;99685.81;;;31.48;36.62
65175;BME280;51761;42.126;24.752;2022-07-23T07:18:09;99692.06;;;31.80;35.85
65175;BME280;51761;42.126;24.752;2022-07-23T07:20:35;99696.66;;;32.39;35.30
65175;BME280;51761;42.126;24.752;2022-07-23T07:23:00;99696.34;;;33.30;34.17
65175;BME280;51761;42.126;24.752;2022-07-23T07:25:26;99688.44;;;33.61;33.01
65175;BME280;51761;42.126;24.752;2022-07-23T07:27:51;99696.53;;;34.69;32.21
65175;BME280;51761;42.126;24.752;2022-07-23T07:30:17;99691.59;;;34.86;32.44
65175;BME280;51761;42.126;24.752;2022-07-23T07:32:42;99684.41;;;35.93;29.50
65175;BME280;51761;42.126;24.752;2022-07-23T07:35:09;99669.63;;;36.66;27.54
65175;BME280;51761;42.126;24.752;2022-07-23T07:37:35;99689.13;;;36.73;28.30
65175;BME280;51761;42.126;24.752;2022-07-23T07:40:00;99674.25;;;36.69;27.53
65175;BME280;51761;42.126;24.752;2022-07-23T07:42:26;99681.59;;;36.96;27.23
65175;BME280;51761;42.126;24.752;2022-07-23T07:44:51;99664.69;;;36.85;28.54
65175;BME280;51761;42.126;24.752;2022-07-23T07:47:17;99687.13;;;38.10;26.35
65175;BME280;51761;42.126;24.752;2022-07-23T07:49:43;99649.75;;;36.72;27.32
65175;BME280;51761;42.126;24.752;2022-07-23T07:52:09;99677.59;;;37.18;27.52
65175;BME280;51761;42.126;24.752;2022-07-23T07:54:35;99670.25;;;37.44;27.05
65175;BME280;51761;42.126;24.752;2022-07-23T07:57:01;99669.66;;;38.76;25.04
65175;BME280;51761;42.126;24.752;2022-07-23T07:59:26;99666.97;;;39.48;24.70
65175;BME280;51761;42.126;24.752;2022-07-23T08:01:56;99645.53;;;39.25;24.16
65175;BME280;51761;42.126;24.752;2022-07-23T08:04:22;99636.72;;;38.85;24.96
65175;BME280;51761;42.126;24.752;2022-07-23T08:06:47;99668.72;;;38.54;24.81
65175;BME280;51761;42.126;24.752;2022-07-23T08:09:13;99654.78;;;39.52;24.15
65175;BME280;51761;42.126;24.752;2022-07-23T08:11:38;99660.81;;;40.05;22.59
65175;BME280;51761;42.126;24.752;2022-07-23T08:14:04;99675.38;;;39.14;24.88
65175;BME280;51761;42.126;24.752;2022-07-23T08:16:29;99642.63;;;38.28;25.12
65175;BME280;51761;42.126;24.752;2022-07-23T08:18:55;99665.63;;;38.62;24.87
65175;BME280;51761;42.126;24.752;2022-07-23T08:21:20;99657.19;;;38.66;24.05
65175;BME280;51761;42.126;24.752;2022-07-23T08:23:49;99653.59;;;38.96;24.38
65175;BME280;51761;42.126;24.752;2022-07-23T08:29:39;99616.34;;;39.76;23.37
65175;BME280;51761;42.126;24.752;2022-07-23T08:35:47;99616.06;;;39.93;23.33
65175;BME280;51761;42.126;24.752;2022-07-23T08:41:40;99626.00;;;39.27;23.62
65175;BME280;51761;42.126;24.752;2022-07-23T08:47:31;99630.09;;;38.94;24.09
65175;BME280;51761;42.126;24.752;2022-07-23T08:53:26;99595.81;;;38.94;23.20
65175;BME280;51761;42.126;24.752;2022-07-23T08:59:16;99598.06;;;39.05;22.94
65175;BME280;51761;42.126;24.752;2022-07-23T09:05:13;99618.69;;;40.31;22.21
65175;BME280;51761;42.126;24.752;2022-07-23T09:11:25;99605.84;;;40.36;21.53
65175;BME280;51761;42.126;24.752;2022-07-23T09:17:47;99603.28;;;40.63;21.03
65175;BME280;51761;42.126;24.752;2022-07-23T09:24:10;99601.34;;;40.23;21.40
65175;BME280;51761;42.126;24.752;2022-07-23T09:40:06;99579.72;;;40.28;20.38
65175;BME280;51761;42.126;24.752;2022-07-23T09:42:33;99560.41;;;40.35;20.52
65175;BME280;51761;42.126;24.752;2022-07-23T09:44:59;99578.09;;;39.84;20.71
65175;BME280;51761;42.126;24.752;2022-07-23T09:47:31;99574.81;;;39.68;21.08
65175;BME280;51761;42.126;24.752;2022-07-23T09:50:03;99575.69;;;39.50;21.11
65175;BME280;51761;42.126;24.752;2022-07-23T09:52:48;99571.91;;;39.89;19.42
65175;BME280;51761;42.126;24.752;2022-07-23T09:55:14;99575.88;;;40.14;19.98
65175;BME280;51761;42.126;24.752;2022-07-23T09:57:41;99553.34;;;39.64;20.48
65175;BME280;51761;42.126;24.752;2022-07-23T10:00:12;99565.06;;;39.54;20.17
65175;BME280;51761;42.126;24.752;2022-07-23T10:02:39;99556.06;;;39.41;19.56
65175;BME280;51761;42.126;24.752;2022-07-23T10:05:06;99559.34;;;39.56;20.44
65175;BME280;51761;42.126;24.752;2022-07-23T10:07:34;99561.72;;;40.11;19.81
65175;BME280;51761;42.126;24.752;2022-07-23T10:10:02;99563.22;;;40.33;20.59
65175;BME280;51761;42.126;24.752;2022-07-23T10:12:28;99549.72;;;40.39;20.92
65175;BME280;51761;42.126;24.752;2022-07-23T10:15:12;99554.78;;;40.60;20.74
65175;BME280;51761;42.126;24.752;2022-07-23T10:17:39;99527.97;;;40.31;19.62
65175;BME280;51761;42.126;24.752;2022-07-23T10:20:05;99549.72;;;40.28;19.27
65175;BME280;51761;42.126;24.752;2022-07-23T10:22:35;99555.75;;;40.53;19.64
65175;BME280;51761;42.126;24.752;2022-07-23T10:25:22;99551.16;;;39.64;19.04
65175;BME280;51761;42.126;24.752;2022-07-23T10:30:43;99544.09;;;39.37;19.83
65175;BME280;51761;42.126;24.752;2022-07-23T10:38:47;99526.13;;;40.14;19.23
65175;BME280;51761;42.126;24.752;2022-07-23T10:41:31;99530.97;;;40.21;19.26
65175;BME280;51761;42.126;24.752;2022-07-23T10:44:10;99506.47;;;40.38;19.37
65175;BME280;51761;42.126;24.752;2022-07-23T10:47:02;99517.22;;;40.68;17.92
65175;BME280;51761;42.126;24.752;2022-07-23T10:50:30;99516.13;;;40.84;17.98
65175;BME280;51761;42.126;24.752;2022-07-23T10:57:57;99502.44;;;41.23;16.62
65175;BME280;51761;42.126;24.752;2022-07-23T11:02:51;99469.59;;;40.79;17.68
65175;BME280;51761;42.126;24.752;2022-07-23T11:05:20;99474.97;;;41.05;16.89
65175;BME280;51761;42.126;24.752;2022-07-23T11:10:39;99497.28;;;40.32;17.59
65175;BME280;51761;42.126;24.752;2022-07-23T11:35:20;99463.09;;;41.63;17.23
65175;BME280;51761;42.126;24.752;2022-07-23T11:37:47;99473.66;;;41.43;16.45
65175;BME280;51761;42.126;24.752;2022-07-23T11:40:16;99464.09;;;41.31;16.41
65175;BME280;51761;42.126;24.752;2022-07-23T11:42:55;99462.56;;;41.18;17.29
65175;BME280;51761;42.126;24.752;2022-07-23T11:45:22;99440.41;;;41.15;16.08
65175;BME280;51761;42.126;24.752;2022-07-23T11:47:48;99462.41;;;41.51;15.85
65175;BME280;51761;42.126;24.752;2022-07-23T11:50:14;99463.25;;;41.28;17.57
65175;BME280;51761;42.126;24.752;2022-07-23T11:52:39;99462.81;;;41.34;17.18
65175;BME280;51761;42.126;24.752;2022-07-23T11:55:10;99449.97;;;41.16;18.14
65175;BME280;51761;42.126;24.752;2022-07-23T11:57:40;99447.41;;;41.22;17.79
65175;BME280;51761;42.126;24.752;2022-07-23T12:00:14;99453.16;;;41.31;16.89
65175;BME280;51761;42.126;24.752;2022-07-23T12:02:42;99433.53;;;41.11;17.07
65175;BME280;51761;42.126;24.752;2022-07-23T12:05:12;99444.63;;;41.12;16.87
65175;BME280;51761;42.126;24.752;2022-07-23T12:07:40;99416.84;;;41.25;18.38
65175;BME280;51761;42.126;24.752;2022-07-23T12:10:18;99443.81;;;41.35;16.51
65175;BME280;51761;42.126;24.752;2022-07-23T12:12:52;99442.97;;;41.32;17.69
65175;BME280;51761;42.126;24.752;2022-07-23T12:15:33;99435.97;;;41.14;16.13
65175;BME280;51761;42.126;24.752;2022-07-23T12:18:01;99439.78;;;41.17;18.35
65175;BME280;51761;42.126;24.752;2022-07-23T12:20:36;99409.88;;;40.95;18.09
65175;BME280;51761;42.126;24.752;2022-07-23T12:23:05;99426.09;;;40.85;16.95
65175;BME280;51761;42.126;24.752;2022-07-23T12:25:33;99426.56;;;41.04;17.56
65175;BME280;51761;42.126;24.752;2022-07-23T12:28:14;99398.63;;;41.15;16.69
65175;BME280;51761;42.126;24.752;2022-07-23T12:30:45;99411.50;;;41.10;16.52
65175;BME280;51761;42.126;24.752;2022-07-23T12:33:26;99408.94;;;41.27;15.73
65175;BME280;51761;42.126;24.752;2022-07-23T12:35:54;99406.56;;;41.01;17.42
65175;BME280;51761;42.126;24.752;2022-07-23T12:38:21;99376.91;;;40.72;15.97
65175;BME280;51761;42.126;24.752;2022-07-23T12:40:48;99393.84;;;40.73;16.32
65175;BME280;51761;42.126;24.752;2022-07-23T12:46:21;99398.16;;;40.38;16.01
65175;BME280;51761;42.126;24.752;2022-07-23T12:51:59;99366.34;;;40.90;16.08
65175;BME280;51761;42.126;24.752;2022-07-23T12:54:28;99375.00;;;40.76;16.15
65175;BME280;51761;42.126;24.752;2022-07-23T12:56:54;99378.28;;;40.94;15.26
65175;BME280;51761;42.126;24.752;2022-07-23T12:59:20;99369.78;;;40.86;16.40
65175;BME280;51761;42.126;24.752;2022-07-23T13:01:55;99374.88;;;40.51;15.91
65175;BME280;51761;42.126;24.752;2022-07-23T13:04:24;99365.31;;;40.62;16.47
65175;BME280;51761;42.126;24.752;2022-07-23T13:06:51;99363.91;;;40.75;15.79
65175;BME280;51761;42.126;24.752;2022-07-23T13:09:22;99326.00;;;40.54;16.38
65175;BME280;51761;42.126;24.752;2022-07-23T13:11:50;99293.41;;;40.25;15.99
65175;BME280;51761;42.126;24.752;2022-07-23T13:14:18;99360.13;;;40.61;16.23
65175;BME280;51761;42.126;24.752;2022-07-23T13:16:44;99363.16;;;40.86;15.66
65175;BME280;51761;42.126;24.752;2022-07-23T13:19:10;99327.78;;;40.59;15.83
65175;BME280;51761;42.126;24.752;2022-07-23T13:21:36;99337.97;;;40.58;16.75
65175;BME280;51761;42.126;24.752;2022-07-23T13:24:02;99351.06;;;40.34;16.47
65175;BME280;51761;42.126;24.752;2022-07-23T13:26:28;99349.66;;;40.23;16.33
65175;BME280;51761;42.126;24.752;2022-07-23T13:28:54;99320.72;;;39.95;16.23
65175;BME280;51761;42.126;24.752;2022-07-23T13:31:20;99350.63;;;39.82;16.61
65175;BME280;51761;42.126;24.752;2022-07-23T13:33:46;99344.06;;;40.04;16.27
65175;BME280;51761;42.126;24.752;2022-07-23T13:36:12;99349.59;;;39.89;17.48
65175;BME280;51761;42.126;24.752;2022-07-23T13:38:37;99342.03;;;39.63;17.10
65175;BME280;51761;42.126;24.752;2022-07-23T13:41:04;99344.75;;;39.82;17.23
65175;BME280;51761;42.126;24.752;2022-07-23T13:43:30;99329.13;;;40.00;15.97
65175;BME280;51761;42.126;24.752;2022-07-23T13:45:55;99337.34;;;40.13;16.42
65175;BME280;51761;42.126;24.752;2022-07-23T13:48:21;99332.22;;;40.03;17.05
65175;BME280;51761;42.126;24.752;2022-07-23T13:50:48;99348.28;;;39.69;17.36
65175;BME280;51761;42.126;24.752;2022-07-23T13:53:16;99332.06;;;39.45;16.94
65175;BME280;51761;42.126;24.752;2022-07-23T13:55:43;99343.25;;;39.49;17.14
65175;BME280;51761;42.126;24.752;2022-07-23T13:58:10;99342.63;;;39.50;17.51
65175;BME280;51761;42.126;24.752;2022-07-23T14:00:40;99338.31;;;39.51;17.61
65175;BME280;51761;42.126;24.752;2022-07-23T14:03:06;99310.97;;;39.47;17.02
65175;BME280;51761;42.126;24.752;2022-07-23T14:05:32;99311.22;;;39.51;16.89
65175;BME280;51761;42.126;24.752;2022-07-23T14:07:58;99336.59;;;39.81;17.44
65175;BME280;51761;42.126;24.752;2022-07-23T14:10:24;99338.25;;;39.61;17.86
65175;BME280;51761;42.126;24.752;2022-07-23T14:12:52;99344.00;;;39.93;17.36
65175;BME280;51761;42.126;24.752;2022-07-23T14:15:24;99298.34;;;39.77;17.09
65175;BME280;51761;42.126;24.752;2022-07-23T14:17:50;99328.94;;;40.08;16.18
65175;BME280;51761;42.126;24.752;2022-07-23T14:20:16;99319.63;;;40.00;17.31
65175;BME280;51761;42.126;24.752;2022-07-23T14:22:41;99327.28;;;40.05;17.63
65175;BME280;51761;42.126;24.752;2022-07-23T14:25:08;99325.31;;;39.87;17.76
65175;BME280;51761;42.126;24.752;2022-07-23T14:27:34;99321.63;;;39.97;17.02
65175;BME280;51761;42.126;24.752;2022-07-23T14:30:00;99318.81;;;39.88;17.51
65175;BME280;51761;42.126;24.752;2022-07-23T14:32:26;99319.16;;;39.27;18.87
65175;BME280;51761;42.126;24.752;2022-07-23T14:34:52;99318.63;;;39.19;19.17